sensor_id;sensor_type;location;lat;lon;timestamp;pressure;altitude;pressure_sealevel;temperature;humidity
4836;BME280;66719;51.226;6.902;2023-11-21T00:02:26;100193.16;;;8.11;100.00
4836;BME280;66719;51.226;6.902;2023-11-21T00:04:54;100188.81;;;8.10;100.00
4836;BME280;66719;51.226;6.902;2023-11-21T00:07:20;100188.78;;;8.11;100.00
4836;BME280;66719;51.226;6.902;2023-11-21T00:09:48;100196.59;;;8.13;100.00
4836;BME280;66719;51.226;6.902;2023-11-21T00:12:14;100195.72;;;8.12;100.00
4836;BME280;66719;51.226;6.902;2023-11-21T00:14:41;100193.97;;;8.13;100.00
4836;BME280;66719;51.226;6.902;2023-11-21T00:17:07;100192.25;;;8.12;100.00
4836;BME280;66719;51.226;6.902;2023-11-21T00:19:34;100193.13;;;8.12;100.00
4836;BME280;66719;51.226;6.902;2023-11-21T00:22:01;100201.84;;;8.11;100.00
4836;BME280;66719;51.226;6.902;2023-11-21T00:24:28;100203.56;;;8.11;100.00
4836;BME280;66719;51.226;6.902;2023-11-21T00:26:54;100213.16;;;8.10;100.00
4836;BME280;66719;51.226;6.902;2023-11-21T00:29:21;100216.72;;;8.05;100.00
4836;BME280;66719;51.226;6.902;2023-11-21T00:31:47;100219.31;;;8.05;100.00
4836;BME280;66719;51.226;6.902;2023-11-21T00:34:14;100220.13;;;8.08;100.00
4836;BME280;66719;51.226;6.902;2023-11-21T00:36:41;100217.44;;;8.13;100.00
4836;BME280;66719;51.226;6.902;2023-11-21T00:39:08;100220.94;;;8.12;100.00
4836;BME280;66719;51.226;6.902;2023-11-21T00:41:35;100212.97;;;8.21;100.00
4836;BME280;66719;51.226;6.902;2023-11-21T00:44:03;100216.50;;;8.18;100.00
4836;BME280;66719;51.226;6.902;2023-11-21T00:46:30;100211.31;;;8.17;100.00
4836;BME280;66719;51.226;6.902;2023-11-21T00:48:57;100214.78;;;8.17;100.00
4836;BME280;66719;51.226;6.902;2023-11-21T00:51:23;100216.53;;;8.15;100.00
4836;BME280;66719;51.226;6.902;2023-11-21T00:53:50;100219.09;;;8.18;100.00
4836;BME280;66719;51.226;6.902;2023-11-21T00:56:18;100224.31;;;8.18;100.00
4836;BME280;66719;51.226;6.902;2023-11-21T00:58:44;100216.50;;;8.18;100.00
4836;BME280;66719;51.226;6.902;2023-11-21T01:01:16;100227.78;;;8.19;100.00
4836;BME280;66719;51.226;6.902;2023-11-21T01:03:43;100229.47;;;8.21;100.00
4836;BME280;66719;51.226;6.902;2023-11-21T01:06:09;100226.94;;;8.15;100.00
4836;BME280;66719;51.226;6.902;2023-11-21T01:08:38;100228.69;;;8.15;100.00
4836;BME280;66719;51.226;6.902;2023-11-21T01:11:05;100228.72;;;8.13;100.00
4836;BME280;66719;51.226;6.902;2023-11-21T01:13:34;100226.13;;;8.13;100.00
4836;BME280;66719;51.226;6.902;2023-11-21T01:16:01;100227.94;;;8.10;100.00
4836;BME280;66719;51.226;6.902;2023-11-21T01:18:28;100230.53;;;8.10;100.00
4836;BME280;66719;51.226;6.902;2023-11-21T01:20:55;100234.03;;;8.09;100.00
4836;BME280;66719;51.226;6.902;2023-11-21T01:23:22;100246.31;;;8.02;100.00
4836;BME280;66719;51.226;6.902;2023-11-21T01:25:49;100243.72;;;7.99;100.00
4836;BME280;66719;51.226;6.902;2023-11-21T01:28:15;100249.03;;;7.94;100.00
4836;BME280;66719;51.226;6.902;2023-11-21T01:30:42;100250.78;;;7.94;100.00
4836;BME280;66719;51.226;6.902;2023-11-21T01:33:09;100253.38;;;7.94;100.00
4836;BME280;66719;51.226;6.902;2023-11-21T01:35:36;100257.75;;;7.90;100.00
4836;BME280;66719;51.226;6.902;2023-11-21T01:38:02;100254.44;;;7.82;100.00
4836;BME280;66719;51.226;6.902;2023-11-21T01:40:30;100253.59;;;7.79;100.00
4836;BME280;66719;51.226;6.902;2023-11-21T01:42:56;100263.13;;;7.80;100.00
4836;BME280;66719;51.226;6.902;2023-11-21T01:45:24;100269.31;;;7.73;100.00
4836;BME280;66719;51.226;6.902;2023-11-21T01:47:51;100263.22;;;7.75;100.00
4836;BME280;66719;51.226;6.902;2023-11-21T01:50:23;100266.63;;;7.79;100.00
4836;BME280;66719;51.226;6.902;2023-11-21T01:52:51;100265.00;;;7.73;100.00
4836;BME280;66719;51.226;6.902;2023-11-21T01:55:19;100268.50;;;7.71;100.00
4836;BME280;66719;51.226;6.902;2023-11-21T01:57:54;100265.09;;;7.65;100.00
4836;BME280;66719;51.226;6.902;2023-11-21T02:00:21;100265.91;;;7.69;100.00
4836;BME280;66719;51.226;6.902;2023-11-21T02:02:50;100270.25;;;7.69;100.00
4836;BME280;66719;51.226;6.902;2023-11-21T02:05:17;100263.34;;;7.66;100.00
4836;BME280;66719;51.226;6.902;2023-11-21T02:07:45;100262.41;;;7.70;100.00
4836;BME280;66719;51.226;6.902;2023-11-21T02:10:15;100264.16;;;7.70;100.00
4836;BME280;66719;51.226;6.902;2023-11-21T02:12:43;100269.38;;;7.70;100.00
4836;BME280;66719;51.226;6.902;2023-11-21T02:15:12;100278.91;;;7.71;100.00
4836;BME280;66719;51.226;6.902;2023-11-21T02:17:47;100278.03;;;7.72;100.00
4836;BME280;66719;51.226;6.902;2023-11-21T02:20:19;100283.09;;;7.81;100.00
4836;BME280;66719;51.226;6.902;2023-11-21T02:22:56;100277.88;;;7.84;100.00
4836;BME280;66719;51.226;6.902;2023-11-21T02:25:28;100285.63;;;7.87;100.00
4836;BME280;66719;51.226;6.902;2023-11-21T02:27:56;100286.47;;;7.89;100.00
4836;BME280;66719;51.226;6.902;2023-11-21T02:30:23;100287.41;;;7.85;100.00
4836;BME280;66719;51.226;6.902;2023-11-21T02:32:51;100291.75;;;7.84;100.00
4836;BME280;66719;51.226;6.902;2023-11-21T02:35:21;100295.28;;;7.82;100.00
4836;BME280;66719;51.226;6.902;2023-11-21T02:37:48;100299.63;;;7.80;100.00
4836;BME280;66719;51.226;6.902;2023-11-21T02:40:14;100295.28;;;7.79;100.00
4836;BME280;66719;51.226;6.902;2023-11-21T02:42:44;100301.31;;;7.84;100.00
4836;BME280;66719;51.226;6.902;2023-11-21T02:45:11;100295.19;;;7.86;100.00
4836;BME280;66719;51.226;6.902;2023-11-21T02:47:43;100302.22;;;7.80;100.00
4836;BME280;66719;51.226;6.902;2023-11-21T02:50:10;100308.41;;;7.73;100.00
4836;BME280;66719;51.226;6.902;2023-11-21T02:52:37;100298.03;;;7.70;100.00
4836;BME280;66719;51.226;6.902;2023-11-21T02:55:04;100302.34;;;7.72;100.00
4836;BME280;66719;51.226;6.902;2023-11-21T02:57:31;100292.78;;;7.74;100.00
4836;BME280;66719;51.226;6.902;2023-11-21T02:59:57;100304.84;;;7.80;100.00
4836;BME280;66719;51.226;6.902;2023-11-21T03:02:24;100310.88;;;7.83;100.00
4836;BME280;66719;51.226;6.902;2023-11-21T03:04:50;100316.06;;;7.85;100.00
4836;BME280;66719;51.226;6.902;2023-11-21T03:07:17;100315.19;;;7.86;100.00
4836;BME280;66719;51.226;6.902;2023-11-21T03:09:45;100316.03;;;7.86;100.00
4836;BME280;66719;51.226;6.902;2023-11-21T03:12:12;100322.97;;;7.87;100.00
4836;BME280;66719;51.226;6.902;2023-11-21T03:14:39;100321.22;;;7.88;100.00
4836;BME280;66719;51.226;6.902;2023-11-21T03:17:06;100313.44;;;7.86;100.00
4836;BME280;66719;51.226;6.902;2023-11-21T03:19:33;100315.19;;;7.86;100.00
4836;BME280;66719;51.226;6.902;2023-11-21T03:21:59;100322.13;;;7.87;100.00
4836;BME280;66719;51.226;6.902;2023-11-21T03:24:26;100317.81;;;7.84;100.00
4836;BME280;66719;51.226;6.902;2023-11-21T03:26:52;100321.28;;;7.85;100.00
4836;BME280;66719;51.226;6.902;2023-11-21T03:29:19;100323.88;;;7.85;100.00
4836;BME280;66719;51.226;6.902;2023-11-21T03:31:45;100319.50;;;7.87;100.00
4836;BME280;66719;51.226;6.902;2023-11-21T03:34:26;100331.72;;;7.85;100.00
4836;BME280;66719;51.226;6.902;2023-11-21T03:36:53;100334.31;;;7.85;100.00
4836;BME280;66719;51.226;6.902;2023-11-21T03:39:20;100326.47;;;7.86;100.00
4836;BME280;66719;51.226;6.902;2023-11-21T03:41:47;100338.63;;;7.86;100.00
4836;BME280;66719;51.226;6.902;2023-11-21T03:44:14;100334.25;;;7.88;100.00
4836;BME280;66719;51.226;6.902;2023-11-21T03:46:40;100345.56;;;7.87;100.00
4836;BME280;66719;51.226;6.902;2023-11-21T03:49:07;100347.41;;;7.79;100.00
4836;BME280;66719;51.226;6.902;2023-11-21T03:51:34;100352.72;;;7.71;100.00
4836;BME280;66719;51.226;6.902;2023-11-21T03:54:00;100356.28;;;7.65;100.00
4836;BME280;66719;51.226;6.902;2023-11-21T03:56:27;100362.38;;;7.64;100.00
4836;BME280;66719;51.226;6.902;2023-11-21T03:58:53;100364.09;;;7.65;100.00
4836;BME280;66719;51.226;6.902;2023-11-21T04:01:24;100364.00;;;7.72;100.00
4836;BME280;66719;51.226;6.902;2023-11-21T04:03:51;100370.06;;;7.75;100.00
4836;BME280;66719;51.226;6.902;2023-11-21T04:06:17;100370.88;;;7.79;100.00
4836;BME280;66719;51.226;6.902;2023-11-21T04:08:45;100369.97;;;7.81;100.00
4836;BME280;66719;51.226;6.902;2023-11-21T04:11:12;100367.34;;;7.83;100.00
4836;BME280;66719;51.226;6.902;2023-11-21T04:13:39;100369.94;;;7.84;100.00
4836;BME280;66719;51.226;6.902;2023-11-21T04:16:07;100363.88;;;7.82;100.00
4836;BME280;66719;51.226;6.902;2023-11-21T04:18:36;100368.25;;;7.82;100.00
4836;BME280;66719;51.226;6.902;2023-11-21T04:21:07;100365.63;;;7.82;100.00
4836;BME280;66719;51.226;6.902;2023-11-21T04:23:35;100372.56;;;7.83;100.00
4836;BME280;66719;51.226;6.902;2023-11-21T04:26:01;100369.97;;;7.81;100.00
4836;BME280;66719;51.226;6.902;2023-11-21T04:28:28;100369.06;;;7.84;100.00
4836;BME280;66719;51.226;6.902;2023-11-21T04:30:55;100364.75;;;7.83;100.00
4836;BME280;66719;51.226;6.902;2023-11-21T04:33:22;100369.06;;;7.84;100.00
4836;BME280;66719;51.226;6.902;2023-11-21T04:35:48;100373.47;;;7.82;100.00
4836;BME280;66719;51.226;6.902;2023-11-21T04:38:15;100377.81;;;7.80;100.00
4836;BME280;66719;51.226;6.902;2023-11-21T04:40:41;100380.41;;;7.80;100.00
4836;BME280;66719;51.226;6.902;2023-11-21T04:43:08;100381.28;;;7.79;100.00
4836;BME280;66719;51.226;6.902;2023-11-21T04:45:35;100385.66;;;7.77;100.00
4836;BME280;66719;51.226;6.902;2023-11-21T04:48:01;100383.09;;;7.75;100.00
4836;BME280;66719;51.226;6.902;2023-11-21T04:50:28;100380.47;;;7.75;100.00
4836;BME280;66719;51.226;6.902;2023-11-21T04:52:54;100383.94;;;7.76;100.00
4836;BME280;66719;51.226;6.902;2023-11-21T04:55:21;100387.41;;;7.76;100.00
4836;BME280;66719;51.226;6.902;2023-11-21T04:57:48;100386.59;;;7.74;100.00
4836;BME280;66719;51.226;6.902;2023-11-21T05:00:14;100386.56;;;7.73;100.00
4836;BME280;66719;51.226;6.902;2023-11-21T05:02:42;100392.66;;;7.72;100.00
4836;BME280;66719;51.226;6.902;2023-11-21T05:05:11;100397.88;;;7.73;100.00
4836;BME280;66719;51.226;6.902;2023-11-21T05:07:39;100403.09;;;7.72;100.00
4836;BME280;66719;51.226;6.902;2023-11-21T05:10:05;100413.50;;;7.75;100.00
4836;BME280;66719;51.226;6.902;2023-11-21T05:12:38;100412.63;;;7.73;100.00
4836;BME280;66719;51.226;6.902;2023-11-21T05:15:06;100411.78;;;7.71;100.00
4836;BME280;66719;51.226;6.902;2023-11-21T05:17:37;100406.56;;;7.72;100.00
4836;BME280;66719;51.226;6.902;2023-11-21T05:20:06;100414.38;;;7.72;100.00
4836;BME280;66719;51.226;6.902;2023-11-21T05:22:35;100418.78;;;7.69;100.00
4836;BME280;66719;51.226;6.902;2023-11-21T05:25:03;100417.94;;;7.63;100.00
4836;BME280;66719;51.226;6.902;2023-11-21T05:27:30;100420.59;;;7.60;100.00
4836;BME280;66719;51.226;6.902;2023-11-21T05:30:04;100420.66;;;7.56;100.00
4836;BME280;66719;51.226;6.902;2023-11-21T05:32:41;100427.59;;;7.57;100.00
4836;BME280;66719;51.226;6.902;2023-11-21T05:35:10;100425.81;;;7.60;100.00
4836;BME280;66719;51.226;6.902;2023-11-21T05:37:42;100435.34;;;7.64;100.00
4836;BME280;66719;51.226;6.902;2023-11-21T05:40:09;100433.59;;;7.65;100.00
4836;BME280;66719;51.226;6.902;2023-11-21T05:42:36;100434.47;;;7.62;100.00
4836;BME280;66719;51.226;6.902;2023-11-21T05:45:04;100438.00;;;7.58;100.00
4836;BME280;66719;51.226;6.902;2023-11-21T05:47:43;100440.59;;;7.60;100.00
4836;BME280;66719;51.226;6.902;2023-11-21T05:50:11;100444.06;;;7.60;100.00
4836;BME280;66719;51.226;6.902;2023-11-21T05:52:41;100445.78;;;7.61;100.00
4836;BME280;66719;51.226;6.902;2023-11-21T05:55:09;100448.44;;;7.55;100.00
4836;BME280;66719;51.226;6.902;2023-11-21T05:57:36;100460.63;;;7.52;100.00
4836;BME280;66719;51.226;6.902;2023-11-21T06:00:08;100463.28;;;7.49;100.00
4836;BME280;66719;51.226;6.902;2023-11-21T06:02:41;100465.91;;;7.47;100.00
4836;BME280;66719;51.226;6.902;2023-11-21T06:05:08;100462.38;;;7.51;100.00
4836;BME280;66719;51.226;6.902;2023-11-21T06:07:36;100466.66;;;7.55;100.00
4836;BME280;66719;51.226;6.902;2023-11-21T06:10:04;100474.47;;;7.58;100.00
4836;BME280;66719;51.226;6.902;2023-11-21T06:12:35;100479.69;;;7.58;100.00
4836;BME280;66719;51.226;6.902;2023-11-21T06:15:03;100479.69;;;7.58;100.00
4836;BME280;66719;51.226;6.902;2023-11-21T06:17:31;100486.59;;;7.61;100.00
4836;BME280;66719;51.226;6.902;2023-11-21T06:19:58;100492.63;;;7.63;100.00
4836;BME280;66719;51.226;6.902;2023-11-21T06:22:25;100487.44;;;7.61;100.00
4836;BME280;66719;51.226;6.902;2023-11-21T06:24:51;100485.72;;;7.62;100.00
4836;BME280;66719;51.226;6.902;2023-11-21T06:27:18;100499.56;;;7.64;100.00
4836;BME280;66719;51.226;6.902;2023-11-21T06:29:44;100496.13;;;7.62;100.00
4836;BME280;66719;51.226;6.902;2023-11-21T06:32:11;100497.00;;;7.62;100.00
4836;BME280;66719;51.226;6.902;2023-11-21T06:34:39;100503.06;;;7.66;100.00
4836;BME280;66719;51.226;6.902;2023-11-21T06:37:05;100505.63;;;7.68;100.00
4836;BME280;66719;51.226;6.902;2023-11-21T06:39:32;100516.84;;;7.73;100.00
4836;BME280;66719;51.226;6.902;2023-11-21T06:41:58;100511.66;;;7.71;100.00
4836;BME280;66719;51.226;6.902;2023-11-21T06:44:26;100516.91;;;7.70;100.00
4836;BME280;66719;51.226;6.902;2023-11-21T06:46:53;100526.44;;;7.71;100.00
4836;BME280;66719;51.226;6.902;2023-11-21T06:49:19;100528.16;;;7.72;100.00
4836;BME280;66719;51.226;6.902;2023-11-21T06:51:46;100531.66;;;7.74;100.00
4836;BME280;66719;51.226;6.902;2023-11-21T06:54:13;100530.75;;;7.76;100.00
4836;BME280;66719;51.226;6.902;2023-11-21T06:56:40;100531.59;;;7.77;100.00
4836;BME280;66719;51.226;6.902;2023-11-21T06:59:07;100538.53;;;7.78;100.00
4836;BME280;66719;51.226;6.902;2023-11-21T07:01:35;100539.38;;;7.80;100.00
4836;BME280;66719;51.226;6.902;2023-11-21T07:04:05;100545.47;;;7.79;100.00
4836;BME280;66719;51.226;6.902;2023-11-21T07:06:33;100553.28;;;7.82;100.00
4836;BME280;66719;51.226;6.902;2023-11-21T07:08:59;100555.88;;;7.83;100.00
4836;BME280;66719;51.226;6.902;2023-11-21T07:11:27;100559.34;;;7.84;100.00
4836;BME280;66719;51.226;6.902;2023-11-21T07:13:54;100557.59;;;7.83;100.00
4836;BME280;66719;51.226;6.902;2023-11-21T07:16:20;100565.41;;;7.84;100.00
4836;BME280;66719;51.226;6.902;2023-11-21T07:18:47;100566.25;;;7.85;100.00
4836;BME280;66719;51.226;6.902;2023-11-21T07:21:15;100575.81;;;7.86;100.00
4836;BME280;66719;51.226;6.902;2023-11-21T07:23:42;100587.94;;;7.88;100.00
4836;BME280;66719;51.226;6.902;2023-11-21T07:26:08;100581.84;;;7.89;100.00
4836;BME280;66719;51.226;6.902;2023-11-21T07:28:35;100591.44;;;7.86;100.00
4836;BME280;66719;51.226;6.902;2023-11-21T07:31:02;100588.84;;;7.86;100.00
4836;BME280;66719;51.226;6.902;2023-11-21T07:33:29;100593.25;;;7.79;100.00
4836;BME280;66719;51.226;6.902;2023-11-21T07:35:56;100588.88;;;7.80;100.00
4836;BME280;66719;51.226;6.902;2023-11-21T07:38:23;100594.09;;;7.83;100.00
4836;BME280;66719;51.226;6.902;2023-11-21T07:40:49;100585.41;;;7.84;100.00
4836;BME280;66719;51.226;6.902;2023-11-21T07:43:16;100590.56;;;7.87;100.00
4836;BME280;66719;51.226;6.902;2023-11-21T07:45:42;100586.22;;;7.87;100.00
4836;BME280;66719;51.226;6.902;2023-11-21T07:48:12;100587.06;;;7.91;100.00
4836;BME280;66719;51.226;6.902;2023-11-21T07:50:39;100577.47;;;7.94;100.00
4836;BME280;66719;51.226;6.902;2023-11-21T07:53:05;100581.75;;;7.97;100.00
4836;BME280;66719;51.226;6.902;2023-11-21T07:55:32;100591.31;;;8.01;100.00
4836;BME280;66719;51.226;6.902;2023-11-21T07:57:59;100592.13;;;8.05;100.00
4836;BME280;66719;51.226;6.902;2023-11-21T08:00:26;100599.09;;;8.04;100.00
4836;BME280;66719;51.226;6.902;2023-11-21T08:02:56;100606.03;;;8.05;100.00
4836;BME280;66719;51.226;6.902;2023-11-21T08:05:23;100612.97;;;8.06;100.00
4836;BME280;66719;51.226;6.902;2023-11-21T08:08:00;100622.53;;;8.06;100.00
4836;BME280;66719;51.226;6.902;2023-11-21T08:10:26;100632.09;;;8.05;100.00
4836;BME280;66719;51.226;6.902;2023-11-21T08:12:53;100628.63;;;8.05;100.00
4836;BME280;66719;51.226;6.902;2023-11-21T08:15:19;100633.84;;;8.05;100.00
4836;BME280;66719;51.226;6.902;2023-11-21T08:17:47;100641.66;;;8.05;100.00
4836;BME280;66719;51.226;6.902;2023-11-21T08:20:14;100653.78;;;8.07;100.00
4836;BME280;66719;51.226;6.902;2023-11-21T08:22:43;100659.00;;;8.10;100.00
4836;BME280;66719;51.226;6.902;2023-11-21T08:25:10;100659.84;;;8.12;100.00
4836;BME280;66719;51.226;6.902;2023-11-21T08:27:37;100665.00;;;8.15;100.00
4836;BME280;66719;51.226;6.902;2023-11-21T08:30:03;100667.63;;;8.15;100.00
4836;BME280;66719;51.226;6.902;2023-11-21T08:32:30;100666.78;;;8.13;100.00
4836;BME280;66719;51.226;6.902;2023-11-21T08:35:00;100676.31;;;8.14;100.00
4836;BME280;66719;51.226;6.902;2023-11-21T08:37:27;100676.31;;;8.16;100.00
4836;BME280;66719;51.226;6.902;2023-11-21T08:39:53;100674.56;;;8.16;100.00
4836;BME280;66719;51.226;6.902;2023-11-21T08:42:20;100681.50;;;8.19;100.00
4836;BME280;66719;51.226;6.902;2023-11-21T08:44:47;100689.28;;;8.22;100.00
4836;BME280;66719;51.226;6.902;2023-11-21T08:47:13;100689.31;;;8.20;100.00
4836;BME280;66719;51.226;6.902;2023-11-21T08:49:40;100684.09;;;8.20;100.00
4836;BME280;66719;51.226;6.902;2023-11-21T08:52:07;100689.31;;;8.20;100.00
4836;BME280;66719;51.226;6.902;2023-11-21T08:54:34;100684.09;;;8.20;100.00
4836;BME280;66719;51.226;6.902;2023-11-21T08:57:01;100684.09;;;8.20;100.00
4836;BME280;66719;51.226;6.902;2023-11-21T08:59:27;100691.88;;;8.27;100.00
4836;BME280;66719;51.226;6.902;2023-11-21T09:01:54;100696.16;;;8.31;100.00
4836;BME280;66719;51.226;6.902;2023-11-21T09:04:21;100700.47;;;8.33;100.00
4836;BME280;66719;51.226;6.902;2023-11-21T09:06:47;100701.38;;;8.35;100.00
4836;BME280;66719;51.226;6.902;2023-11-21T09:09:14;100703.09;;;8.33;100.00
4836;BME280;66719;51.226;6.902;2023-11-21T09:11:40;100708.31;;;8.32;100.00
4836;BME280;66719;51.226;6.902;2023-11-21T09:14:07;100700.47;;;8.33;100.00
4836;BME280;66719;51.226;6.902;2023-11-21T09:16:35;100709.19;;;8.32;100.00
4836;BME280;66719;51.226;6.902;2023-11-21T09:19:01;100715.28;;;8.37;100.00
4836;BME280;66719;51.226;6.902;2023-11-21T09:21:31;100718.75;;;8.38;100.00
4836;BME280;66719;51.226;6.902;2023-11-21T09:23:58;100713.53;;;8.38;100.00
4836;BME280;66719;51.226;6.902;2023-11-21T09:26:24;100720.47;;;8.39;100.00
4836;BME280;66719;51.226;6.902;2023-11-21T09:28:51;100726.53;;;8.44;100.00
4836;BME280;66719;51.226;6.902;2023-11-21T09:31:17;100729.13;;;8.44;100.00
4836;BME280;66719;51.226;6.902;2023-11-21T09:33:45;100727.38;;;8.44;100.00
4836;BME280;66719;51.226;6.902;2023-11-21T09:36:14;100738.69;;;8.43;100.00
4836;BME280;66719;51.226;6.902;2023-11-21T09:38:41;100737.81;;;8.44;100.00
4836;BME280;66719;51.226;6.902;2023-11-21T09:41:49;100738.69;;;8.45;100.00
4836;BME280;66719;51.226;6.902;2023-11-21T09:44:34;100745.59;;;8.47;100.00
4836;BME280;66719;51.226;6.902;2023-11-21T09:47:01;100747.34;;;8.48;100.00
4836;BME280;66719;51.226;6.902;2023-11-21T09:49:28;100752.56;;;8.48;100.00
4836;BME280;66719;51.226;6.902;2023-11-21T09:51:55;100752.53;;;8.50;100.00
4836;BME280;66719;51.226;6.902;2023-11-21T09:54:25;100749.91;;;8.50;100.00
4836;BME280;66719;51.226;6.902;2023-11-21T09:56:53;100755.16;;;8.48;100.00
4836;BME280;66719;51.226;6.902;2023-11-21T09:59:20;100757.75;;;8.52;100.00
4836;BME280;66719;51.226;6.902;2023-11-21T10:01:47;100759.50;;;8.49;100.00
4836;BME280;66719;51.226;6.902;2023-11-21T10:04:14;100763.00;;;8.48;100.00
4836;BME280;66719;51.226;6.902;2023-11-21T10:06:41;100762.97;;;8.50;100.00
4836;BME280;66719;51.226;6.902;2023-11-21T10:09:12;100755.97;;;8.55;100.00
4836;BME280;66719;51.226;6.902;2023-11-21T10:11:43;100761.16;;;8.58;100.00
4836;BME280;66719;51.226;6.902;2023-11-21T10:14:11;100762.03;;;8.60;100.00
4836;BME280;66719;51.226;6.902;2023-11-21T10:16:40;100766.34;;;8.60;100.00
4836;BME280;66719;51.226;6.902;2023-11-21T10:19:10;100759.41;;;8.59;100.00
4836;BME280;66719;51.226;6.902;2023-11-21T10:21:38;100768.13;;;8.58;100.00
4836;BME280;66719;51.226;6.902;2023-11-21T10:24:05;100768.13;;;8.58;100.00
4836;BME280;66719;51.226;6.902;2023-11-21T10:26:33;100765.53;;;8.56;100.00
4836;BME280;66719;51.226;6.902;2023-11-21T10:29:16;100765.53;;;8.56;100.00
4836;BME280;66719;51.226;6.902;2023-11-21T10:31:43;100759.41;;;8.60;100.00
4836;BME280;66719;51.226;6.902;2023-11-21T10:34:16;100755.91;;;8.63;100.00
4836;BME280;66719;51.226;6.902;2023-11-21T10:36:43;100762.84;;;8.64;100.00
4836;BME280;66719;51.226;6.902;2023-11-21T10:39:14;100767.16;;;8.66;100.00
4836;BME280;66719;51.226;6.902;2023-11-21T10:41:44;100768.00;;;8.68;100.00
4836;BME280;66719;51.226;6.902;2023-11-21T10:44:18;100777.59;;;8.69;100.00
4836;BME280;66719;51.226;6.902;2023-11-21T10:46:52;100772.34;;;8.71;100.00
4836;BME280;66719;51.226;6.902;2023-11-21T10:49:24;100778.41;;;8.73;100.00
4836;BME280;66719;51.226;6.902;2023-11-21T10:51:54;100784.50;;;8.73;100.00
4836;BME280;66719;51.226;6.902;2023-11-21T10:54:23;100779.28;;;8.72;100.00
4836;BME280;66719;51.226;6.902;2023-11-21T10:56:59;100785.34;;;8.74;100.00
4836;BME280;66719;51.226;6.902;2023-11-21T10:59:30;100788.81;;;8.76;100.00
4836;BME280;66719;51.226;6.902;2023-11-21T11:02:01;100787.06;;;8.78;100.00
4836;BME280;66719;51.226;6.902;2023-11-21T11:04:30;100791.41;;;8.79;100.00
4836;BME280;66719;51.226;6.902;2023-11-21T11:06:58;100792.28;;;8.80;100.00
4836;BME280;66719;51.226;6.902;2023-11-21T11:09:28;100797.50;;;8.78;100.00
4836;BME280;66719;51.226;6.902;2023-11-21T11:11:57;100803.59;;;8.77;100.00
4836;BME280;66719;51.226;6.902;2023-11-21T11:14:24;100800.09;;;8.80;100.00
4836;BME280;66719;51.226;6.902;2023-11-21T11:16:54;100807.06;;;8.79;100.00
4836;BME280;66719;51.226;6.902;2023-11-21T11:19:21;100808.81;;;8.78;100.00
4836;BME280;66719;51.226;6.902;2023-11-21T11:24:54;100808.84;;;8.75;100.00
4836;BME280;66719;51.226;6.902;2023-11-21T11:35:57;100807.06;;;8.79;100.00
4836;BME280;66719;51.226;6.902;2023-11-21T11:38:33;100803.59;;;8.78;100.00
4836;BME280;66719;51.226;6.902;2023-11-21T11:41:04;100802.72;;;8.78;100.00
4836;BME280;66719;51.226;6.902;2023-11-21T11:43:32;100803.59;;;8.78;100.00
4836;BME280;66719;51.226;6.902;2023-11-21T11:46:11;100804.44;;;8.81;100.00
4836;BME280;66719;51.226;6.902;2023-11-21T11:48:41;100809.63;;;8.84;100.00
4836;BME280;66719;51.226;6.902;2023-11-21T11:51:12;100811.38;;;8.83;100.00
4836;BME280;66719;51.226;6.902;2023-11-21T11:53:41;100812.22;;;8.84;100.00
4836;BME280;66719;51.226;6.902;2023-11-21T11:56:29;100809.59;;;8.88;100.00
4836;BME280;66719;51.226;6.902;2023-11-21T11:59:04;100806.91;;;8.93;100.00
4836;BME280;66719;51.226;6.902;2023-11-21T12:01:33;100811.25;;;8.97;100.00
4836;BME280;66719;51.226;6.902;2023-11-21T12:06:52;100813.84;;;8.98;100.00
4836;BME280;66719;51.226;6.902;2023-11-21T12:09:24;100819.97;;;8.96;100.00
4836;BME280;66719;51.226;6.902;2023-11-21T12:11:53;100827.78;;;8.96;100.00
4836;BME280;66719;51.226;6.902;2023-11-21T12:14:21;100825.16;;;8.97;100.00
4836;BME280;66719;51.226;6.902;2023-11-21T12:16:48;100832.97;;;8.99;100.00
4836;BME280;66719;51.226;6.902;2023-11-21T12:19:14;100827.72;;;9.02;100.00
4836;BME280;66719;51.226;6.902;2023-11-21T12:21:41;100835.50;;;9.06;100.00
4836;BME280;66719;51.226;6.902;2023-11-21T12:24:08;100834.59;;;9.09;100.00
4836;BME280;66719;51.226;6.902;2023-11-21T12:26:35;100825.00;;;9.11;100.00
4836;BME280;66719;51.226;6.902;2023-11-21T12:29:05;100832.88;;;9.08;100.00
4836;BME280;66719;51.226;6.902;2023-11-21T12:31:34;100835.47;;;9.10;100.00
4836;BME280;66719;51.226;6.902;2023-11-21T12:34:01;100832.84;;;9.10;100.00
4836;BME280;66719;51.226;6.902;2023-11-21T12:36:29;100825.88;;;9.13;100.00
4836;BME280;66719;51.226;6.902;2023-11-21T12:38:56;100835.38;;;9.19;100.00
4836;BME280;66719;51.226;6.902;2023-11-21T12:41:23;100832.72;;;9.23;100.00
4836;BME280;66719;51.226;6.902;2023-11-21T12:43:49;100841.38;;;9.27;100.00
4836;BME280;66719;51.226;6.902;2023-11-21T12:46:16;100839.59;;;9.30;100.00
4836;BME280;66719;51.226;6.902;2023-11-21T12:48:44;100841.28;;;9.34;100.00
4836;BME280;66719;51.226;6.902;2023-11-21T12:51:14;100841.28;;;9.34;100.00
4836;BME280;66719;51.226;6.902;2023-11-21T12:53:42;100843.88;;;9.36;100.00
4836;BME280;66719;51.226;6.902;2023-11-21T12:56:12;100842.16;;;9.33;100.00
4836;BME280;66719;51.226;6.902;2023-11-21T12:58:40;100848.22;;;9.35;100.00
4836;BME280;66719;51.226;6.902;2023-11-21T13:01:12;100846.47;;;9.38;100.00
4836;BME280;66719;51.226;6.902;2023-11-21T13:03:48;100848.22;;;9.35;100.00
4836;BME280;66719;51.226;6.902;2023-11-21T13:06:18;100857.91;;;9.30;100.00
4836;BME280;66719;51.226;6.902;2023-11-21T13:08:45;100864.84;;;9.28;100.00
4836;BME280;66719;51.226;6.902;2023-11-21T13:11:12;100870.97;;;9.30;100.00
4836;BME280;66719;51.226;6.902;2023-11-21T13:13:41;100874.41;;;9.32;100.00
4836;BME280;66719;51.226;6.902;2023-11-21T13:16:11;100867.41;;;9.34;100.00
4836;BME280;66719;51.226;6.902;2023-11-21T13:18:39;100873.50;;;9.35;100.00
4836;BME280;66719;51.226;6.902;2023-11-21T13:21:09;100871.78;;;9.34;100.00